Time;durP1;ratioP1;P1;durP2;ratioP2;P2;SDS_P1;SDS_P2;PMS_P1;PMS_P2;Temp;Humidity;BMP_temperature;BMP_pressure;BME280_temperature;BME280_humidity;BME280_pressure;Samples;Min_cycle;Max_cycle;Signal;HPM_P1;HPM_P2
2021/12/20 00:02:00;;;;;;;2.20;1.50;;;;;;;;;;1891573;76;21104;-41
2021/12/20 00:04:28;;;;;;;1.45;1.00;;;;;;;;;;1891667;76;21042;-41
2021/12/20 00:06:57;;;;;;;3.55;1.80;;;;;;;;;;1891556;76;21042;-42
2021/12/20 00:09:26;;;;;;;1.10;1.00;;;;;;;;;;1891536;76;21046;-41
2021/12/20 00:11:55;;;;;;;2.62;1.17;;;;;;;;;;1891591;76;21046;-42
2021/12/20 00:14:24;;;;;;;1.42;1.17;;;;;;;;;;1891536;76;21043;-41
2021/12/20 00:16:53;;;;;;;1.82;1.12;;;;;;;;;;1891685;76;21046;-41
2021/12/20 00:19:23;;;;;;;1.77;1.60;;;;;;;;;;1891786;76;21022;-41
2021/12/20 00:21:52;;;;;;;2.00;1.22;;;;;;;;;;1891483;76;21038;-41
2021/12/20 00:24:21;;;;;;;5.65;1.50;;;;;;;;;;1891550;76;21039;-42
2021/12/20 00:26:50;;;;;;;2.02;1.20;;;;;;;;;;1886562;76;21040;-41
2021/12/20 00:29:19;;;;;;;1.30;1.20;;;;;;;;;;1872731;75;21067;-42
2021/12/20 00:31:48;;;;;;;3.20;1.10;;;;;;;;;;1872876;77;21051;-44
2021/12/20 00:34:16;;;;;;;2.77;1.42;;;;;;;;;;1872838;75;21039;-44
2021/12/20 00:36:45;;;;;;;2.12;1.65;;;;;;;;;;1872868;75;21243;-44
2021/12/20 00:42:01;;;;;;;1.30;1.20;;;;;;;;;;1872882;75;21051;-41
2021/12/20 00:44:30;;;;;;;2.65;1.50;;;;;;;;;;1872809;75;21090;-40
2021/12/20 00:46:59;;;;;;;1.92;1.27;;;;;;;;;;1872822;77;21101;-41
2021/12/20 00:49:28;;;;;;;22.35;2.77;;;;;;;;;;1872892;77;21109;-42
2021/12/20 00:51:56;;;;;;;1.50;1.37;;;;;;;;;;1872894;76;21114;-41
2021/12/20 00:54:25;;;;;;;1.70;1.27;;;;;;;;;;1872902;76;21097;-43
2021/12/20 00:56:54;;;;;;;1.82;1.30;;;;;;;;;;1872797;76;21039;-41
2021/12/20 00:59:23;;;;;;;3.83;1.50;;;;;;;;;;1872782;76;21043;-41
2021/12/20 01:01:52;;;;;;;1.80;1.40;;;;;;;;;;1872741;77;21047;-41
2021/12/20 01:04:21;;;;;;;1.77;1.37;;;;;;;;;;1872790;77;21132;-41
2021/12/20 01:06:49;;;;;;;2.22;1.37;;;;;;;;;;1872809;76;21045;-41
2021/12/20 01:09:18;;;;;;;2.02;1.80;;;;;;;;;;1872914;75;21067;-41
2021/12/20 01:11:52;;;;;;;1.67;1.50;;;;;;;;;;1872861;75;21019;-41
2021/12/20 01:14:24;;;;;;;1.75;1.57;;;;;;;;;;1872657;75;21575;-41
2021/12/20 01:16:47;;;;;;;1.90;1.70;;;;;;;;;;1872346;76;21587;-41
2021/12/20 01:19:16;;;;;;;2.33;1.87;;;;;;;;;;1872819;77;21035;-40
2021/12/20 01:21:45;;;;;;;2.52;2.10;;;;;;;;;;1872775;76;21023;-41
2021/12/20 01:24:13;;;;;;;2.27;1.82;;;;;;;;;;1872908;77;21097;-41
2021/12/20 01:26:42;;;;;;;4.83;2.00;;;;;;;;;;1872839;77;21160;-41
2021/12/20 01:29:11;;;;;;;5.33;1.90;;;;;;;;;;1872844;76;21099;-41
2021/12/20 01:31:39;;;;;;;1.92;1.45;;;;;;;;;;1872955;75;21027;-41
2021/12/20 01:34:08;;;;;;;3.17;1.60;;;;;;;;;;1873004;77;21109;-41
2021/12/20 01:36:37;;;;;;;2.15;1.75;;;;;;;;;;1872813;76;21500;-42
2021/12/20 01:39:06;;;;;;;3.45;2.00;;;;;;;;;;1872803;76;21100;-41
2021/12/20 01:41:36;;;;;;;2.87;1.57;;;;;;;;;;1872745;76;21105;-41
2021/12/20 01:44:05;;;;;;;1.98;1.72;;;;;;;;;;1872913;76;21003;-41
2021/12/20 01:46:33;;;;;;;3.55;1.57;;;;;;;;;;1872812;77;21027;-41
2021/12/20 01:49:05;;;;;;;2.65;1.77;;;;;;;;;;1872880;76;21105;-42
2021/12/20 01:54:08;;;;;;;5.78;2.22;;;;;;;;;;1872792;77;21059;-41
2021/12/20 01:56:40;;;;;;;8.65;2.80;;;;;;;;;;1872928;77;21027;-41
2021/12/20 01:59:08;;;;;;;8.03;2.67;;;;;;;;;;1872794;76;21477;-41
2021/12/20 02:01:37;;;;;;;8.05;3.65;;;;;;;;;;1872819;77;21003;-42
2021/12/20 02:04:08;;;;;;;5.62;2.85;;;;;;;;;;1872744;77;21125;-41
2021/12/20 02:06:40;;;;;;;6.20;2.35;;;;;;;;;;1872781;77;21520;-41
2021/12/20 02:09:08;;;;;;;4.30;1.60;;;;;;;;;;1872603;76;21063;-41
2021/12/20 02:11:37;;;;;;;3.90;2.10;;;;;;;;;;1872799;77;21027;-40
2021/12/20 02:14:06;;;;;;;4.20;1.70;;;;;;;;;;1872817;77;21454;-41
2021/12/20 02:16:36;;;;;;;5.95;2.12;;;;;;;;;;1872818;77;21027;-41
2021/12/20 02:19:05;;;;;;;4.03;1.82;;;;;;;;;;1872844;77;21101;-41
2021/12/20 02:21:34;;;;;;;4.78;2.27;;;;;;;;;;1872681;77;21038;-41
2021/12/20 02:24:03;;;;;;;7.17;2.25;;;;;;;;;;1872785;77;21019;-41
2021/12/20 02:26:33;;;;;;;4.72;2.22;;;;;;;;;;1872776;77;21047;-44
2021/12/20 02:29:05;;;;;;;1.60;1.20;;;;;;;;;;1873804;75;21035;-43
2021/12/20 02:39:45;;;;;;;3.50;1.80;;;;;;;;;;1891480;76;21429;-43
2021/12/20 02:42:19;;;;;;;1.55;1.32;;;;;;;;;;1891426;75;21046;-44
2021/12/20 02:44:53;;;;;;;2.65;1.62;;;;;;;;;;1891353;75;21536;-44
2021/12/20 02:47:28;;;;;;;2.33;1.77;;;;;;;;;;1891371;75;21476;-44
2021/12/20 02:49:49;;;;;;;3.37;1.62;;;;;;;;;;1890301;75;21054;-43
2021/12/20 02:52:18;;;;;;;1.55;1.32;;;;;;;;;;1891498;76;21002;-43
2021/12/20 02:54:47;;;;;;;3.30;1.65;;;;;;;;;;1891588;76;21030;-44
2021/12/20 02:57:15;;;;;;;2.83;1.72;;;;;;;;;;1891505;76;21077;-44
2021/12/20 02:59:44;;;;;;;1.60;1.42;;;;;;;;;;1891399;76;21026;-44
2021/12/20 03:02:13;;;;;;;2.98;1.52;;;;;;;;;;1891496;76;21054;-44
2021/12/20 03:04:42;;;;;;;1.80;0.93;;;;;;;;;;1891505;76;21137;-43
2021/12/20 03:07:14;;;;;;;1.27;1.07;;;;;;;;;;1891656;76;21160;-43
2021/12/20 03:09:48;;;;;;;5.00;1.42;;;;;;;;;;1891552;76;21465;-43
2021/12/20 03:12:13;;;;;;;2.08;1.50;;;;;;;;;;1891290;75;21579;-43
2021/12/20 03:14:45;;;;;;;4.67;1.70;;;;;;;;;;1891548;76;21046;-44
2021/12/20 03:17:12;;;;;;;4.10;1.80;;;;;;;;;;1891485;75;21164;-43
2021/12/20 03:19:41;;;;;;;5.40;2.20;;;;;;;;;;1891539;76;21085;-44
2021/12/20 03:22:09;;;;;;;5.53;2.05;;;;;;;;;;1891622;76;21175;-43
2021/12/20 03:24:38;;;;;;;2.25;1.72;;;;;;;;;;1891688;76;21108;-44
2021/12/20 03:27:07;;;;;;;4.35;2.10;;;;;;;;;;1891636;75;21046;-44
2021/12/20 03:29:36;;;;;;;2.60;1.50;;;;;;;;;;1889420;75;21114;-43
2021/12/20 03:32:05;;;;;;;1.70;1.32;;;;;;;;;;1872961;75;21050;-43
2021/12/20 03:34:34;;;;;;;2.45;1.60;;;;;;;;;;1872841;77;21057;-43
2021/12/20 03:37:03;;;;;;;2.27;1.65;;;;;;;;;;1872971;77;21101;-41
2021/12/20 03:39:32;;;;;;;2.30;1.70;;;;;;;;;;1872811;76;21044;-40
2021/12/20 03:42:01;;;;;;;3.45;1.85;;;;;;;;;;1872748;77;21136;-41
2021/12/20 03:44:37;;;;;;;1.82;1.40;;;;;;;;;;1872825;77;21039;-43
2021/12/20 03:47:00;;;;;;;8.50;1.90;;;;;;;;;;1872237;76;21023;-43
2021/12/20 03:49:29;;;;;;;3.80;1.40;;;;;;;;;;1872837;77;21036;-43
2021/12/20 03:51:58;;;;;;;1.67;1.37;;;;;;;;;;1872818;75;21015;-44
2021/12/20 03:54:27;;;;;;;2.12;1.65;;;;;;;;;;1872807;77;21019;-43
2021/12/20 03:56:55;;;;;;;2.08;1.70;;;;;;;;;;1872857;77;21035;-43
2021/12/20 03:59:24;;;;;;;2.40;1.35;;;;;;;;;;1872869;77;21109;-43
2021/12/20 04:01:53;;;;;;;3.83;2.60;;;;;;;;;;1872805;76;21043;-43
2021/12/20 04:04:22;;;;;;;4.25;2.45;;;;;;;;;;1872825;76;21055;-43
2021/12/20 04:06:51;;;;;;;6.45;3.98;;;;;;;;;;1872756;77;21094;-42
2021/12/20 04:09:20;;;;;;;4.15;2.70;;;;;;;;;;1872773;77;21043;-44
2021/12/20 04:11:49;;;;;;;3.80;2.37;;;;;;;;;;1872788;77;21047;-43
2021/12/20 04:14:18;;;;;;;17.45;8.93;;;;;;;;;;1872720;77;21039;-44
2021/12/20 04:16:47;;;;;;;2.90;1.90;;;;;;;;;;1872738;76;21023;-43
2021/12/20 04:19:15;;;;;;;1.50;1.40;;;;;;;;;;1872851;77;21007;-43
2021/12/20 04:21:44;;;;;;;1.60;1.50;;;;;;;;;;1872782;77;21101;-43
2021/12/20 04:24:13;;;;;;;1.80;1.65;;;;;;;;;;1872788;76;21083;-43
2021/12/20 04:26:41;;;;;;;3.60;1.57;;;;;;;;;;1872859;77;21082;-43
2021/12/20 04:29:10;;;;;;;2.72;1.77;;;;;;;;;;1872927;77;21100;-43
2021/12/20 04:31:40;;;;;;;3.60;1.40;;;;;;;;;;1872792;76;21059;-44
2021/12/20 04:34:08;;;;;;;2.33;1.77;;;;;;;;;;1872851;75;21054;-42
2021/12/20 04:36:37;;;;;;;5.97;2.50;;;;;;;;;;1872878;77;21047;-42
2021/12/20 04:39:09;;;;;;;3.15;1.17;;;;;;;;;;1872843;77;21086;-42
2021/12/20 04:41:36;;;;;;;1.85;1.10;;;;;;;;;;1872854;76;21494;-42
2021/12/20 04:44:05;;;;;;;2.85;1.12;;;;;;;;;;1872806;76;21109;-43
2021/12/20 04:46:34;;;;;;;2.17;1.10;;;;;;;;;;1872940;75;21097;-41
2021/12/20 04:49:03;;;;;;;1.75;1.37;;;;;;;;;;1872863;75;21047;-44
2021/12/20 04:51:32;;;;;;;2.22;1.55;;;;;;;;;;1872894;77;21090;-42
2021/12/20 04:54:01;;;;;;;2.87;1.22;;;;;;;;;;1872818;77;21058;-43
2021/12/20 04:56:29;;;;;;;4.00;1.47;;;;;;;;;;1872837;75;21039;-42
2021/12/20 04:58:58;;;;;;;3.95;1.80;;;;;;;;;;1872797;77;21035;-43
2021/12/20 05:01:27;;;;;;;2.58;1.70;;;;;;;;;;1872824;77;21043;-43
2021/12/20 05:03:56;;;;;;;3.02;1.42;;;;;;;;;;1872763;76;21133;-42
2021/12/20 05:06:25;;;;;;;4.50;1.50;;;;;;;;;;1872826;77;21059;-43
2021/12/20 05:08:55;;;;;;;4.95;2.65;;;;;;;;;;1872938;76;21019;-43
2021/12/20 05:11:24;;;;;;;3.45;1.32;;;;;;;;;;1872825;76;21624;-42
2021/12/20 05:13:53;;;;;;;5.15;2.20;;;;;;;;;;1872896;77;21157;-42
2021/12/20 05:16:22;;;;;;;1.50;1.05;;;;;;;;;;1872870;76;21083;-42
2021/12/20 05:18:50;;;;;;;2.55;1.35;;;;;;;;;;1872904;76;21105;-42
2021/12/20 05:21:19;;;;;;;1.87;1.30;;;;;;;;;;1872991;77;21038;-42
2021/12/20 05:23:48;;;;;;;2.83;1.27;;;;;;;;;;1872742;77;21027;-42
2021/12/20 05:26:17;;;;;;;3.70;1.22;;;;;;;;;;1872761;77;21019;-42
2021/12/20 05:28:46;;;;;;;2.45;1.70;;;;;;;;;;1872778;77;21019;-43
2021/12/20 05:31:15;;;;;;;1.50;1.40;;;;;;;;;;1880358;76;21062;-43
2021/12/20 05:33:44;;;;;;;5.20;2.05;;;;;;;;;;1891557;76;21108;-43
2021/12/20 05:36:12;;;;;;;5.78;2.17;;;;;;;;;;1891443;76;21018;-43
2021/12/20 05:38:41;;;;;;;5.05;2.08;;;;;;;;;;1891581;76;21105;-43
2021/12/20 05:41:10;;;;;;;4.00;1.40;;;;;;;;;;1891502;76;21022;-43
2021/12/20 05:43:39;;;;;;;3.83;1.87;;;;;;;;;;1891428;76;21042;-42
2021/12/20 05:46:08;;;;;;;5.20;2.47;;;;;;;;;;1891507;76;21042;-42
2021/12/20 05:48:37;;;;;;;3.65;2.30;;;;;;;;;;1891447;76;21046;-43
2021/12/20 05:51:06;;;;;;;5.15;2.33;;;;;;;;;;1891435;76;21042;-43
2021/12/20 05:53:34;;;;;;;7.12;2.45;;;;;;;;;;1891469;76;21042;-42
2021/12/20 05:56:03;;;;;;;4.53;2.20;;;;;;;;;;1891569;76;21006;-43
2021/12/20 05:58:32;;;;;;;2.75;1.72;;;;;;;;;;1891480;76;21066;-43
2021/12/20 06:01:01;;;;;;;2.37;1.70;;;;;;;;;;1891564;76;21022;-42
2021/12/20 06:03:29;;;;;;;3.45;1.82;;;;;;;;;;1891642;76;21038;-43
2021/12/20 06:05:58;;;;;;;3.85;1.90;;;;;;;;;;1891563;76;21177;-42
2021/12/20 06:08:27;;;;;;;12.37;4.58;;;;;;;;;;1891546;76;21030;-45
2021/12/20 06:10:56;;;;;;;1.90;1.25;;;;;;;;;;1891634;76;21086;-42
2021/12/20 06:13:25;;;;;;;4.28;2.12;;;;;;;;;;1891474;76;21038;-44
2021/12/20 06:15:53;;;;;;;2.08;1.67;;;;;;;;;;1891587;76;21100;-42
2021/12/20 06:18:22;;;;;;;9.08;2.00;;;;;;;;;;1891499;76;21096;-42
2021/12/20 06:20:51;;;;;;;5.72;2.37;;;;;;;;;;1891735;76;21082;-42
2021/12/20 06:23:20;;;;;;;5.00;1.82;;;;;;;;;;1891436;75;21015;-43
2021/12/20 06:25:48;;;;;;;3.85;2.10;;;;;;;;;;1891517;76;21066;-43
2021/12/20 06:28:17;;;;;;;6.00;2.22;;;;;;;;;;1891568;76;21046;-42
2021/12/20 06:30:47;;;;;;;2.85;2.20;;;;;;;;;;1891519;76;21101;-42
2021/12/20 06:33:16;;;;;;;4.45;2.10;;;;;;;;;;1891570;76;21120;-43
2021/12/20 06:35:46;;;;;;;3.22;2.67;;;;;;;;;;1891575;75;21038;-43
2021/12/20 06:38:19;;;;;;;5.05;2.20;;;;;;;;;;1891571;76;21026;-44
2021/12/20 06:40:44;;;;;;;3.15;1.57;;;;;;;;;;1891212;75;21477;-42
2021/12/20 06:43:13;;;;;;;4.15;1.77;;;;;;;;;;1891364;76;21113;-42
2021/12/20 06:45:42;;;;;;;6.25;1.67;;;;;;;;;;1891441;76;21000;-42
2021/12/20 06:48:11;;;;;;;10.03;2.47;;;;;;;;;;1891399;75;21043;-43
2021/12/20 06:50:40;;;;;;;1.87;1.45;;;;;;;;;;1891448;76;21070;-43
2021/12/20 06:53:09;;;;;;;4.80;2.40;;;;;;;;;;1891430;76;21038;-43
2021/12/20 06:55:37;;;;;;;6.00;2.72;;;;;;;;;;1891493;76;21038;-42
2021/12/20 06:58:06;;;;;;;2.85;2.10;;;;;;;;;;1891546;75;21022;-43
2021/12/20 07:00:35;;;;;;;3.67;1.65;;;;;;;;;;1891619;75;21092;-42
2021/12/20 07:03:04;;;;;;;4.50;2.22;;;;;;;;;;1891714;76;21015;-43
2021/12/20 07:05:33;;;;;;;1.90;1.50;;;;;;;;;;1891803;76;21090;-43
2021/12/20 07:08:02;;;;;;;4.40;2.47;;;;;;;;;;1891576;76;21098;-43
2021/12/20 07:10:31;;;;;;;2.25;1.98;;;;;;;;;;1891541;76;21093;-42
2021/12/20 07:13:00;;;;;;;3.45;2.10;;;;;;;;;;1891570;76;21046;-43
2021/12/20 07:15:31;;;;;;;4.08;2.37;;;;;;;;;;1891581;76;21112;-44
2021/12/20 07:17:59;;;;;;;2.33;1.72;;;;;;;;;;1891544;76;21574;-43
2021/12/20 07:20:28;;;;;;;3.37;2.17;;;;;;;;;;1891691;76;21034;-43
2021/12/20 07:22:57;;;;;;;8.95;2.47;;;;;;;;;;1891471;76;21007;-42
2021/12/20 07:25:26;;;;;;;6.22;2.22;;;;;;;;;;1891719;76;21104;-43
2021/12/20 07:27:54;;;;;;;3.50;2.05;;;;;;;;;;1891692;76;21116;-42
2021/12/20 07:30:23;;;;;;;3.50;2.33;;;;;;;;;;1891690;76;21023;-42
2021/12/20 07:32:52;;;;;;;4.53;2.62;;;;;;;;;;1891457;75;21113;-42
2021/12/20 07:35:22;;;;;;;5.80;3.20;;;;;;;;;;1891587;76;21910;-42
2021/12/20 07:37:54;;;;;;;9.50;3.42;;;;;;;;;;1891564;76;21144;-42
2021/12/20 07:40:22;;;;;;;9.15;3.30;;;;;;;;;;1891683;76;21534;-42
2021/12/20 07:43:02;;;;;;;4.65;2.20;;;;;;;;;;1891476;76;21042;-40
2021/12/20 07:45:38;;;;;;;5.42;1.92;;;;;;;;;;1887312;75;21162;-43
2021/12/20 07:48:15;;;;;;;2.62;2.05;;;;;;;;;;1890213;75;21398;-42
2021/12/20 07:50:51;;;;;;;8.68;2.15;;;;;;;;;;1890103;75;21154;-42
2021/12/20 07:53:25;;;;;;;5.05;2.50;;;;;;;;;;1895426;74;21195;-41
2021/12/20 07:55:55;;;;;;;5.75;3.00;;;;;;;;;;1924132;74;21136;-43
2021/12/20 07:58:24;;;;;;;5.85;3.52;;;;;;;;;;1923906;74;21081;-43
2021/12/20 08:00:53;;;;;;;2.65;2.35;;;;;;;;;;1923950;74;21093;-45
2021/12/20 08:03:22;;;;;;;3.83;1.82;;;;;;;;;;1923972;74;21136;-44
2021/12/20 08:05:51;;;;;;;7.30;2.42;;;;;;;;;;1923842;74;21038;-45
2021/12/20 08:08:20;;;;;;;3.50;2.08;;;;;;;;;;1923875;74;21109;-45
2021/12/20 08:10:49;;;;;;;7.65;3.30;;;;;;;;;;1923900;74;21093;-43
2021/12/20 08:13:18;;;;;;;6.72;2.77;;;;;;;;;;1923746;74;21035;-43
2021/12/20 08:15:46;;;;;;;2.92;2.05;;;;;;;;;;1923641;74;21103;-42
2021/12/20 08:18:15;;;;;;;5.20;2.62;;;;;;;;;;1923642;74;21074;-44
2021/12/20 08:20:44;;;;;;;4.62;2.22;;;;;;;;;;1923873;74;21091;-43
2021/12/20 08:23:13;;;;;;;4.83;2.35;;;;;;;;;;1923708;74;21034;-42
2021/12/20 08:25:43;;;;;;;4.45;2.30;;;;;;;;;;1923814;74;21086;-43
2021/12/20 08:28:11;;;;;;;6.95;2.45;;;;;;;;;;1923791;74;21159;-42
2021/12/20 08:30:40;;;;;;;5.83;3.27;;;;;;;;;;1923988;74;21124;-42
2021/12/20 08:33:09;;;;;;;4.28;2.72;;;;;;;;;;1912020;74;21109;-43
2021/12/20 08:35:39;;;;;;;5.47;2.45;;;;;;;;;;1880865;75;21512;-43
2021/12/20 08:38:07;;;;;;;3.83;3.00;;;;;;;;;;1872096;77;21160;-43
2021/12/20 08:40:36;;;;;;;7.58;2.95;;;;;;;;;;1872193;77;21565;-44
2021/12/20 08:43:05;;;;;;;4.60;2.52;;;;;;;;;;1872069;75;21031;-43
2021/12/20 08:45:34;;;;;;;3.12;2.25;;;;;;;;;;1872096;76;21112;-41
2021/12/20 08:48:03;;;;;;;6.92;2.52;;;;;;;;;;1871991;77;21183;-42
2021/12/20 08:50:32;;;;;;;5.22;2.55;;;;;;;;;;1871817;76;21082;-43
2021/12/20 08:53:00;;;;;;;7.72;2.33;;;;;;;;;;1872133;77;21101;-42
2021/12/20 08:55:29;;;;;;;3.85;2.02;;;;;;;;;;1871989;77;21164;-42
2021/12/20 08:57:58;;;;;;;4.67;2.67;;;;;;;;;;1871863;76;21093;-41
2021/12/20 09:00:28;;;;;;;6.53;2.72;;;;;;;;;;1872104;77;21035;-41
2021/12/20 09:02:58;;;;;;;4.30;2.58;;;;;;;;;;1871918;75;21070;-43
2021/12/20 09:05:28;;;;;;;4.03;2.40;;;;;;;;;;1871720;77;21071;-42
2021/12/20 09:08:00;;;;;;;6.20;3.85;;;;;;;;;;1871909;77;21102;-42
2021/12/20 09:10:28;;;;;;;5.80;3.40;;;;;;;;;;1872122;76;21058;-42
2021/12/20 09:12:56;;;;;;;9.25;4.42;;;;;;;;;;1871930;75;21082;-41
2021/12/20 09:15:25;;;;;;;10.30;4.87;;;;;;;;;;1872025;75;21101;-43
2021/12/20 09:17:54;;;;;;;13.22;3.60;;;;;;;;;;1871915;76;21074;-41
2021/12/20 09:20:23;;;;;;;13.30;5.85;;;;;;;;;;1872000;77;21050;-41
2021/12/20 09:22:53;;;;;;;12.93;5.17;;;;;;;;;;1871703;77;20999;-40
2021/12/20 09:25:23;;;;;;;11.40;4.95;;;;;;;;;;1871945;77;21096;-40
2021/12/20 09:27:52;;;;;;;5.97;3.47;;;;;;;;;;1871707;77;21055;-40
2021/12/20 09:30:22;;;;;;;9.45;3.20;;;;;;;;;;1872108;77;21031;-40
2021/12/20 09:32:51;;;;;;;3.37;2.50;;;;;;;;;;1877625;76;21066;-41
2021/12/20 09:35:21;;;;;;;9.18;2.75;;;;;;;;;;1890734;76;21089;-41
2021/12/20 09:37:51;;;;;;;4.55;3.55;;;;;;;;;;1890755;76;21160;-40
2021/12/20 09:40:31;;;;;;;6.17;3.62;;;;;;;;;;1890710;76;21163;-40
2021/12/20 09:57:08;;;;;;;4.30;3.00;;;8.60;80.20;;;;;;1977724;72;28378;-53
2021/12/20 09:59:39;;;;;;;5.67;2.70;;;9.10;80.50;;;;;;1988133;72;21079;-56
2021/12/20 10:02:09;;;;;;;6.37;2.83;;;9.10;80.30;;;;;;1987601;72;21448;-56
2021/12/20 10:04:38;;;;;;;6.72;3.55;;;9.10;79.50;;;;;;1951931;73;21129;-50
2021/12/20 10:07:09;;;;;;;7.80;3.12;;;9.10;79.90;;;;;;1952617;73;21059;-52
2021/12/20 10:09:40;;;;;;;2.08;1.62;;;9.10;79.10;;;;;;1952826;73;21113;-56
2021/12/20 10:12:21;;;;;;;1.70;1.17;;;9.10;78.90;;;;;;1953060;73;21461;-51
2021/12/20 10:15:02;;;;;;;2.72;1.90;;;8.90;78.60;;;;;;1953050;73;21128;-49
2021/12/20 10:17:35;;;;;;;1.75;1.65;;;8.70;79.00;;;;;;1952994;73;21078;-55
2021/12/20 10:20:18;;;;;;;2.67;1.80;;;8.50;79.60;;;;;;1953076;73;21028;-54
2021/12/20 10:22:49;;;;;;;6.05;3.47;;;8.30;79.80;;;;;;1953044;73;21089;-57
2021/12/20 10:25:23;;;;;;;13.40;5.70;;;8.10;80.40;;;;;;1953129;73;21027;-51
2021/12/20 10:27:53;;;;;;;24.63;6.62;;;8.00;80.70;;;;;;1953142;73;21012;-56
2021/12/20 10:30:31;;;;;;;10.10;4.58;;;7.90;81.60;;;;;;1952894;73;21083;-54
2021/12/20 10:33:02;;;;;;;6.25;3.50;;;7.80;81.20;;;;;;1953286;73;21175;-52
2021/12/20 10:35:33;;;;;;;4.42;2.20;;;7.80;81.70;;;;;;1953046;73;21032;-48
2021/12/20 10:38:06;;;;;;;7.50;3.20;;;7.70;81.50;;;;;;1953090;73;21039;-55
2021/12/20 10:40:38;;;;;;;8.38;3.00;;;7.70;82.20;;;;;;1949176;73;21149;-58
2021/12/20 10:43:08;;;;;;;6.00;4.62;;;7.60;82.40;;;;;;1949606;73;21063;-57
2021/12/20 10:45:38;;;;;;;3.52;1.90;;;7.50;83.20;;;;;;1952834;73;21035;-55
2021/12/20 10:48:11;;;;;;;4.00;1.75;;;7.40;84.00;;;;;;1953099;73;21101;-56
2021/12/20 10:50:44;;;;;;;4.85;2.33;;;7.40;83.40;;;;;;1952977;73;21073;-57
2021/12/20 10:53:25;;;;;;;3.02;1.92;;;7.30;83.40;;;;;;1952957;73;21133;-53
2021/12/20 10:56:00;;;;;;;17.75;8.88;;;7.30;84.00;;;;;;1942260;73;21135;-57
2021/12/20 10:58:33;;;;;;;3.83;2.98;;;7.30;83.70;;;;;;1915084;75;21017;-57
2021/12/20 11:01:16;;;;;;;3.05;2.72;;;7.30;84.10;;;;;;1915121;75;21084;-56
2021/12/20 11:03:48;;;;;;;3.40;2.45;;;7.40;84.40;;;;;;1914926;74;21084;-56
2021/12/20 11:09:08;;;;;;;5.50;3.25;;;7.40;84.40;;;;;;1915178;75;21088;-57
2021/12/20 11:11:40;;;;;;;4.40;3.37;;;7.40;84.80;;;;;;1915066;75;21088;-58
2021/12/20 11:14:10;;;;;;;2.30;2.00;;;7.30;85.20;;;;;;1915039;75;20998;-56
2021/12/20 11:16:49;;;;;;;2.60;2.40;;;7.20;85.40;;;;;;1915083;75;21146;-55
2021/12/20 11:19:32;;;;;;;2.10;1.80;;;7.20;84.80;;;;;;1915099;75;21107;-55
2021/12/20 11:22:04;;;;;;;2.08;1.50;;;7.10;85.00;;;;;;1915116;75;21142;-54
2021/12/20 11:24:53;;;;;;;1.50;1.30;;;7.00;84.70;;;;;;1915108;75;21037;-56
2021/12/20 11:27:22;;;;;;;4.20;2.62;;;7.00;84.80;;;;;;1914703;75;21025;-54
2021/12/20 11:29:53;;;;;;;16.95;7.03;;;6.90;85.30;;;;;;1915039;75;21372;-56
2021/12/20 11:32:25;;;;;;;2.33;1.92;;;6.90;85.60;;;;;;1915128;75;21092;-52
2021/12/20 11:34:55;;;;;;;4.78;2.33;;;6.80;85.60;;;;;;1915134;75;21052;-50
2021/12/20 11:37:27;;;;;;;2.65;2.02;;;6.70;85.40;;;;;;1915067;75;21033;-55
2021/12/20 11:39:58;;;;;;;2.83;2.25;;;6.70;85.50;;;;;;1915040;75;21068;-56
2021/12/20 11:42:27;;;;;;;2.95;1.50;;;6.70;85.40;;;;;;1915132;74;21102;-53
2021/12/20 11:45:01;;;;;;;2.15;1.35;;;6.70;85.80;;;;;;1915048;75;21431;-52
2021/12/20 11:47:54;;;;;;;19.43;9.80;;;6.70;85.50;;;;;;1915200;74;21099;-55
2021/12/20 11:50:26;;;;;;;2.30;1.60;;;6.70;85.50;;;;;;1914971;75;21084;-50
2021/12/20 11:52:58;;;;;;;4.62;2.87;;;6.60;85.80;;;;;;1914219;75;21187;-52
2021/12/20 11:55:30;;;;;;;2.08;1.70;;;6.60;85.70;;;;;;1913188;75;21103;-53
2021/12/20 11:58:05;;;;;;;2.37;1.55;;;6.50;86.10;;;;;;1910596;73;21584;-53
2021/12/20 12:00:41;;;;;;;6.33;2.17;;;6.50;86.30;;;;;;1899902;75;21097;-54
2021/12/20 12:03:19;;;;;;;4.97;1.75;;;6.50;86.40;;;;;;1899977;75;21059;-54
2021/12/20 12:05:53;;;;;;;6.15;3.27;;;6.40;86.30;;;;;;1899866;75;21570;-50
2021/12/20 12:08:31;;;;;;;28.87;10.18;;;6.40;86.10;;;;;;1899987;75;21011;-53
2021/12/20 12:11:09;;;;;;;37.55;14.70;;;6.40;86.60;;;;;;1899915;74;21106;-52
2021/12/20 12:14:02;;;;;;;3.83;2.20;;;6.30;86.20;;;;;;1899837;75;21153;-52
2021/12/20 12:17:03;;;;;;;7.90;3.52;;;6.30;86.00;;;;;;1900071;75;21024;-51
2021/12/20 12:19:52;;;;;;;5.55;2.25;;;6.20;85.70;;;;;;1900617;75;21085;-49
2021/12/20 12:22:33;;;;;;;2.37;1.70;;;6.30;86.40;;;;;;1900661;75;21086;-49
2021/12/20 12:25:04;;;;;;;2.98;2.30;;;6.30;86.40;;;;;;1900782;75;21089;-51
2021/12/20 12:27:34;;;;;;;3.95;2.08;;;6.40;86.20;;;;;;1900522;74;21465;-50
2021/12/20 12:30:23;;;;;;;2.20;1.60;;;6.40;86.50;;;;;;1899691;75;21028;-52
2021/12/20 12:32:55;;;;;;;4.05;3.75;;;6.50;86.50;;;;;;1890775;75;21079;-51
2021/12/20 12:35:43;;;;;;;6.87;3.12;;;6.50;86.40;;;;;;1900411;75;21127;-49
2021/12/20 12:38:21;;;;;;;13.60;3.00;;;6.40;86.10;;;;;;1900706;75;21089;-50
2021/12/20 12:40:53;;;;;;;1.98;1.70;;;6.40;86.30;;;;;;1873310;75;21056;-49
2021/12/20 12:43:26;;;;;;;12.33;7.55;;;6.40;86.50;;;;;;1887587;75;21531;-52
2021/12/20 12:45:58;;;;;;;8.13;2.98;;;6.40;86.80;;;;;;1897745;75;21334;-52
2021/12/20 12:48:49;;;;;;;61.18;7.30;;;6.50;86.70;;;;;;1900734;75;21446;-53
2021/12/20 12:51:24;;;;;;;15.72;2.92;;;6.50;88.60;;;;;;1900772;75;21027;-47
2021/12/20 12:53:53;;;;;;;;;;;6.90;89.00;;;;;;1903469;75;21065;-48
2021/12/20 12:56:28;;;;;;;15.80;3.20;;;7.10;88.60;;;;;;1900951;73;20098;-49
2021/12/20 12:59:19;;;;;;;6.53;2.15;;;7.00;86.60;;;;;;1928864;74;21578;-47
2021/12/20 13:01:56;;;;;;;11.48;2.83;;;7.00;86.70;;;;;;1928718;74;20988;-46
2021/12/20 13:04:49;;;;;;;13.78;2.83;;;6.90;86.90;;;;;;1849183;77;21103;-47
2021/12/20 13:07:19;;;;;;;19.00;3.10;;;6.80;87.20;;;;;;1919194;75;21048;-49
2021/12/20 13:09:50;;;;;;;7.42;2.33;;;6.80;87.20;;;;;;1919147;75;21083;-48
2021/12/20 13:12:42;;;;;;;4.15;1.98;;;6.70;87.40;;;;;;1919188;75;21016;-49
2021/12/20 13:15:12;;;;;;;3.37;1.65;;;6.70;86.90;;;;;;1918093;74;21020;-49
2021/12/20 13:17:40;;;;;;;3.52;2.83;;;6.50;86.50;;;;;;1918709;74;20996;-48
2021/12/20 13:22:57;;;;;;;5.72;3.87;;;6.20;86.90;;;;;;1919269;75;21107;-46
2021/12/20 13:25:34;;;;;;;4.17;3.20;;;6.10;87.40;;;;;;1918350;74;21602;-47
2021/12/20 13:28:05;;;;;;;9.63;3.20;;;6.00;87.60;;;;;;1919228;75;21032;-48
2021/12/20 13:30:51;;;;;;;5.05;3.42;;;6.00;87.90;;;;;;1919263;74;21028;-48
2021/12/20 13:33:24;;;;;;;3.83;3.17;;;5.90;88.10;;;;;;1919246;75;21493;-48
2021/12/20 13:35:54;;;;;;;7.62;3.75;;;5.90;88.40;;;;;;1919153;75;21064;-48
2021/12/20 13:38:29;;;;;;;5.28;2.95;;;5.90;88.40;;;;;;1919178;75;21106;-48
2021/12/20 13:41:03;;;;;;;5.70;4.15;;;5.90;88.70;;;;;;1919345;75;21016;-48
2021/12/20 13:43:37;;;;;;;3.85;2.70;;;5.90;88.40;;;;;;1919624;75;21457;-48
2021/12/20 13:46:28;;;;;;;15.70;3.27;;;5.90;88.40;;;;;;1919226;75;21080;-47
2021/12/20 13:49:16;;;;;;;2.65;1.65;;;5.90;88.00;;;;;;1919185;75;21016;-47
2021/12/20 13:51:51;;;;;;;8.45;2.30;;;5.90;87.90;;;;;;1919164;75;21029;-47
2021/12/20 13:54:44;;;;;;;1.47;1.15;;;5.90;87.90;;;;;;1919174;74;21043;-47
2021/12/20 13:57:23;;;;;;;3.15;1.72;;;5.90;87.30;;;;;;1922044;73;21177;-48
2021/12/20 14:00:04;;;;;;;2.77;1.70;;;5.80;87.10;;;;;;1940122;74;21044;-48
2021/12/20 14:02:40;;;;;;;4.00;1.92;;;5.80;87.30;;;;;;1938885;74;21130;-48
2021/12/20 14:05:20;;;;;;;2.10;1.70;;;5.80;87.20;;;;;;1940274;74;21016;-52
2021/12/20 14:07:52;;;;;;;1.45;0.95;;;5.70;87.10;;;;;;1940127;74;21074;-50
2021/12/20 14:10:36;;;;;;;1.52;1.10;;;5.60;87.10;;;;;;1940192;73;21052;-50
2021/12/20 14:13:11;;;;;;;1.35;1.15;;;5.60;87.10;;;;;;1940095;74;21013;-52
2021/12/20 14:15:44;;;;;;;8.20;1.75;;;5.50;87.30;;;;;;1939677;74;21066;-49
2021/12/20 14:18:15;;;;;;;2.92;1.72;;;5.40;87.20;;;;;;1940219;74;21020;-47
2021/12/20 14:21:11;;;;;;;5.83;2.00;;;5.40;87.60;;;;;;1940218;74;20996;-48
2021/12/20 14:23:52;;;;;;;3.45;1.65;;;5.40;87.30;;;;;;1940238;74;21021;-49
2021/12/20 14:26:26;;;;;;;1.60;1.50;;;5.40;87.70;;;;;;1940171;74;21090;-47
2021/12/20 14:29:07;;;;;;;2.25;1.32;;;5.40;87.40;;;;;;1940333;74;21540;-51
2021/12/20 14:31:41;;;;;;;3.40;1.90;;;5.40;87.20;;;;;;1938920;74;21476;-49
2021/12/20 14:34:11;;;;;;;1.85;1.35;;;5.30;87.20;;;;;;1940131;73;21024;-48
2021/12/20 14:36:46;;;;;;;2.20;1.75;;;5.30;87.70;;;;;;1940280;74;21032;-49
2021/12/20 14:39:18;;;;;;;6.67;2.30;;;5.30;87.50;;;;;;1940432;74;21028;-51
2021/12/20 14:42:01;;;;;;;6.22;1.82;;;5.30;87.60;;;;;;1939594;74;21016;-47
2021/12/20 14:44:33;;;;;;;3.42;1.47;;;5.30;87.60;;;;;;1939012;74;21079;-50
2021/12/20 14:47:07;;;;;;;3.80;2.22;;;5.30;87.70;;;;;;1939426;74;21074;-48
2021/12/20 14:49:46;;;;;;;6.20;2.10;;;5.30;87.70;;;;;;1939938;74;21020;-49
2021/12/20 14:52:18;;;;;;;3.87;1.67;;;5.40;87.80;;;;;;1939926;74;21070;-49
2021/12/20 14:54:52;;;;;;;;;;;5.40;87.50;;;;;;1943201;73;21024;-49
2021/12/20 14:57:23;;;;;;;2.67;1.70;;;5.40;87.10;;;;;;1938972;73;20175;-53
2021/12/20 14:59:53;;;;;;;1.87;1.72;;;5.40;86.80;;;;;;1940312;74;21008;-49
2021/12/20 15:02:35;;;;;;;5.28;1.82;;;5.30;87.00;;;;;;1940225;74;20989;-46